sensor_id;sensor_type;location;lat;lon;timestamp;P1;durP1;ratioP1;P2;durP2;ratioP2
8102;SDS011;4094;49.948;11.574;2023-09-30T00:01:35;21.20;;;13.27;;
8102;SDS011;4094;49.948;11.574;2023-09-30T00:04:06;23.80;;;13.83;;
8102;SDS011;4094;49.948;11.574;2023-09-30T00:06:35;21.30;;;13.63;;
8102;SDS011;4094;49.948;11.574;2023-09-30T00:09:06;22.27;;;13.60;;
8102;SDS011;4094;49.948;11.574;2023-09-30T00:11:35;20.70;;;12.53;;
8102;SDS011;4094;49.948;11.574;2023-09-30T00:14:04;22.17;;;13.80;;
8102;SDS011;4094;49.948;11.574;2023-09-30T00:16:34;19.20;;;12.77;;
8102;SDS011;4094;49.948;11.574;2023-09-30T00:19:03;20.73;;;13.33;;
8102;SDS011;4094;49.948;11.574;2023-09-30T00:21:32;21.10;;;13.13;;
8102;SDS011;4094;49.948;11.574;2023-09-30T00:24:01;18.57;;;11.90;;
8102;SDS011;4094;49.948;11.574;2023-09-30T00:26:31;20.53;;;12.87;;
8102;SDS011;4094;49.948;11.574;2023-09-30T00:29:00;18.70;;;12.90;;
8102;SDS011;4094;49.948;11.574;2023-09-30T00:31:31;20.70;;;12.23;;
8102;SDS011;4094;49.948;11.574;2023-09-30T00:34:01;18.03;;;11.93;;
8102;SDS011;4094;49.948;11.574;2023-09-30T00:36:30;22.50;;;13.00;;
8102;SDS011;4094;49.948;11.574;2023-09-30T00:38:59;21.93;;;13.47;;
8102;SDS011;4094;49.948;11.574;2023-09-30T00:41:29;22.23;;;12.83;;
8102;SDS011;4094;49.948;11.574;2023-09-30T00:43:59;20.70;;;12.90;;
8102;SDS011;4094;49.948;11.574;2023-09-30T00:46:29;18.97;;;11.93;;
8102;SDS011;4094;49.948;11.574;2023-09-30T00:49:00;20.27;;;12.20;;
8102;SDS011;4094;49.948;11.574;2023-09-30T00:51:30;18.23;;;12.33;;
8102;SDS011;4094;49.948;11.574;2023-09-30T00:54:00;20.27;;;12.63;;
8102;SDS011;4094;49.948;11.574;2023-09-30T00:56:31;19.23;;;12.27;;
8102;SDS011;4094;49.948;11.574;2023-09-30T00:59:03;18.80;;;11.03;;
8102;SDS011;4094;49.948;11.574;2023-09-30T01:01:32;19.63;;;11.90;;
8102;SDS011;4094;49.948;11.574;2023-09-30T01:04:01;19.83;;;11.83;;
8102;SDS011;4094;49.948;11.574;2023-09-30T01:06:31;18.13;;;11.33;;
8102;SDS011;4094;49.948;11.574;2023-09-30T01:09:01;16.57;;;11.50;;
8102;SDS011;4094;49.948;11.574;2023-09-30T01:11:30;17.80;;;11.97;;
8102;SDS011;4094;49.948;11.574;2023-09-30T01:13:59;19.67;;;12.17;;
8102;SDS011;4094;49.948;11.574;2023-09-30T01:16:30;17.83;;;11.10;;
8102;SDS011;4094;49.948;11.574;2023-09-30T01:19:01;17.10;;;11.40;;
8102;SDS011;4094;49.948;11.574;2023-09-30T01:21:34;19.83;;;12.10;;
8102;SDS011;4094;49.948;11.574;2023-09-30T01:24:03;18.93;;;11.57;;
8102;SDS011;4094;49.948;11.574;2023-09-30T01:26:33;16.33;;;10.70;;
8102;SDS011;4094;49.948;11.574;2023-09-30T01:29:02;17.73;;;11.33;;
8102;SDS011;4094;49.948;11.574;2023-09-30T01:31:31;19.63;;;11.47;;
8102;SDS011;4094;49.948;11.574;2023-09-30T01:34:01;17.87;;;11.97;;
8102;SDS011;4094;49.948;11.574;2023-09-30T01:36:31;18.37;;;11.57;;
8102;SDS011;4094;49.948;11.574;2023-09-30T01:39:02;18.13;;;11.37;;
8102;SDS011;4094;49.948;11.574;2023-09-30T01:41:32;16.83;;;11.47;;
8102;SDS011;4094;49.948;11.574;2023-09-30T01:44:01;16.97;;;11.30;;
8102;SDS011;4094;49.948;11.574;2023-09-30T01:46:30;16.10;;;11.27;;
8102;SDS011;4094;49.948;11.574;2023-09-30T01:49:00;17.67;;;12.03;;
8102;SDS011;4094;49.948;11.574;2023-09-30T01:51:29;18.10;;;11.77;;
8102;SDS011;4094;49.948;11.574;2023-09-30T01:54:00;18.67;;;11.53;;
8102;SDS011;4094;49.948;11.574;2023-09-30T01:56:30;17.37;;;11.43;;
8102;SDS011;4094;49.948;11.574;2023-09-30T01:58:59;15.53;;;10.30;;
8102;SDS011;4094;49.948;11.574;2023-09-30T02:01:28;17.90;;;10.93;;
8102;SDS011;4094;49.948;11.574;2023-09-30T02:03:57;16.47;;;10.93;;
8102;SDS011;4094;49.948;11.574;2023-09-30T02:06:27;18.40;;;11.27;;
8102;SDS011;4094;49.948;11.574;2023-09-30T02:08:56;15.73;;;10.90;;
8102;SDS011;4094;49.948;11.574;2023-09-30T02:11:26;16.80;;;11.20;;
8102;SDS011;4094;49.948;11.574;2023-09-30T02:13:56;14.67;;;9.63;;
8102;SDS011;4094;49.948;11.574;2023-09-30T02:16:25;16.40;;;10.40;;
8102;SDS011;4094;49.948;11.574;2023-09-30T02:18:55;17.43;;;10.90;;
8102;SDS011;4094;49.948;11.574;2023-09-30T02:21:24;17.27;;;10.60;;
8102;SDS011;4094;49.948;11.574;2023-09-30T02:23:54;15.63;;;10.63;;
8102;SDS011;4094;49.948;11.574;2023-09-30T02:26:23;16.23;;;10.73;;
8102;SDS011;4094;49.948;11.574;2023-09-30T02:28:56;15.83;;;10.23;;
8102;SDS011;4094;49.948;11.574;2023-09-30T02:31:25;16.57;;;10.60;;
8102;SDS011;4094;49.948;11.574;2023-09-30T02:33:54;18.13;;;11.27;;
8102;SDS011;4094;49.948;11.574;2023-09-30T02:36:24;17.10;;;11.23;;
8102;SDS011;4094;49.948;11.574;2023-09-30T02:38:54;14.70;;;11.07;;
8102;SDS011;4094;49.948;11.574;2023-09-30T02:41:23;16.17;;;10.30;;
8102;SDS011;4094;49.948;11.574;2023-09-30T02:43:53;15.87;;;10.40;;
8102;SDS011;4094;49.948;11.574;2023-09-30T02:46:24;14.70;;;9.70;;
8102;SDS011;4094;49.948;11.574;2023-09-30T02:48:55;9.57;;;7.57;;
8102;SDS011;4094;49.948;11.574;2023-09-30T02:51:24;10.77;;;7.30;;
8102;SDS011;4094;49.948;11.574;2023-09-30T02:53:56;10.13;;;7.20;;
8102;SDS011;4094;49.948;11.574;2023-09-30T02:56:25;9.03;;;6.90;;
8102;SDS011;4094;49.948;11.574;2023-09-30T02:58:58;8.20;;;6.40;;
8102;SDS011;4094;49.948;11.574;2023-09-30T03:01:29;8.43;;;6.73;;
8102;SDS011;4094;49.948;11.574;2023-09-30T03:03:58;8.40;;;6.30;;
8102;SDS011;4094;49.948;11.574;2023-09-30T03:06:28;8.17;;;6.03;;
8102;SDS011;4094;49.948;11.574;2023-09-30T03:08:57;9.83;;;6.43;;
8102;SDS011;4094;49.948;11.574;2023-09-30T03:11:26;10.57;;;7.23;;
8102;SDS011;4094;49.948;11.574;2023-09-30T03:13:55;9.50;;;6.90;;
8102;SDS011;4094;49.948;11.574;2023-09-30T03:16:25;8.23;;;6.17;;
8102;SDS011;4094;49.948;11.574;2023-09-30T03:18:55;11.20;;;6.57;;
8102;SDS011;4094;49.948;11.574;2023-09-30T03:21:24;10.27;;;6.67;;
8102;SDS011;4094;49.948;11.574;2023-09-30T03:23:53;6.97;;;5.80;;
8102;SDS011;4094;49.948;11.574;2023-09-30T03:26:23;6.60;;;5.43;;
8102;SDS011;4094;49.948;11.574;2023-09-30T03:28:52;6.20;;;4.97;;
8102;SDS011;4094;49.948;11.574;2023-09-30T03:31:20;6.53;;;4.77;;
8102;SDS011;4094;49.948;11.574;2023-09-30T03:33:50;5.97;;;5.37;;
8102;SDS011;4094;49.948;11.574;2023-09-30T03:36:23;7.27;;;5.53;;
8102;SDS011;4094;49.948;11.574;2023-09-30T03:38:52;5.50;;;4.93;;
8102;SDS011;4094;49.948;11.574;2023-09-30T03:41:23;5.43;;;4.90;;
8102;SDS011;4094;49.948;11.574;2023-09-30T03:43:52;7.03;;;5.07;;
8102;SDS011;4094;49.948;11.574;2023-09-30T03:46:21;5.50;;;4.80;;
8102;SDS011;4094;49.948;11.574;2023-09-30T03:48:51;6.10;;;5.40;;
8102;SDS011;4094;49.948;11.574;2023-09-30T03:51:20;5.20;;;4.70;;
8102;SDS011;4094;49.948;11.574;2023-09-30T03:53:53;5.57;;;5.00;;
8102;SDS011;4094;49.948;11.574;2023-09-30T03:56:23;5.70;;;5.20;;
8102;SDS011;4094;49.948;11.574;2023-09-30T03:58:52;5.63;;;5.03;;
8102;SDS011;4094;49.948;11.574;2023-09-30T04:01:21;5.47;;;4.90;;
8102;SDS011;4094;49.948;11.574;2023-09-30T04:03:51;5.40;;;4.90;;
8102;SDS011;4094;49.948;11.574;2023-09-30T04:06:22;5.73;;;5.23;;
8102;SDS011;4094;49.948;11.574;2023-09-30T04:08:51;5.90;;;4.73;;
8102;SDS011;4094;49.948;11.574;2023-09-30T04:11:22;5.27;;;4.77;;
8102;SDS011;4094;49.948;11.574;2023-09-30T04:13:52;6.83;;;5.00;;
8102;SDS011;4094;49.948;11.574;2023-09-30T04:16:21;6.80;;;4.83;;
8102;SDS011;4094;49.948;11.574;2023-09-30T04:18:50;6.57;;;5.07;;
8102;SDS011;4094;49.948;11.574;2023-09-30T04:21:19;6.10;;;4.80;;
8102;SDS011;4094;49.948;11.574;2023-09-30T04:23:49;5.87;;;5.27;;
8102;SDS011;4094;49.948;11.574;2023-09-30T04:26:19;9.93;;;5.30;;
8102;SDS011;4094;49.948;11.574;2023-09-30T04:28:49;6.03;;;5.00;;
8102;SDS011;4094;49.948;11.574;2023-09-30T04:31:18;5.60;;;5.10;;
8102;SDS011;4094;49.948;11.574;2023-09-30T04:33:49;6.13;;;5.40;;
8102;SDS011;4094;49.948;11.574;2023-09-30T04:36:20;5.53;;;5.03;;
8102;SDS011;4094;49.948;11.574;2023-09-30T04:38:50;6.07;;;5.40;;
8102;SDS011;4094;49.948;11.574;2023-09-30T04:41:21;5.90;;;5.10;;
8102;SDS011;4094;49.948;11.574;2023-09-30T04:43:50;6.07;;;5.47;;
8102;SDS011;4094;49.948;11.574;2023-09-30T04:46:20;7.90;;;5.90;;
8102;SDS011;4094;49.948;11.574;2023-09-30T04:48:51;5.63;;;5.13;;
8102;SDS011;4094;49.948;11.574;2023-09-30T04:51:20;5.70;;;4.80;;
8102;SDS011;4094;49.948;11.574;2023-09-30T04:53:49;6.87;;;4.50;;
8102;SDS011;4094;49.948;11.574;2023-09-30T04:56:18;6.67;;;4.83;;
8102;SDS011;4094;49.948;11.574;2023-09-30T04:58:48;6.07;;;5.10;;
8102;SDS011;4094;49.948;11.574;2023-09-30T05:01:17;6.43;;;5.07;;
8102;SDS011;4094;49.948;11.574;2023-09-30T05:03:47;5.27;;;4.87;;
8102;SDS011;4094;49.948;11.574;2023-09-30T05:06:17;7.07;;;5.03;;
8102;SDS011;4094;49.948;11.574;2023-09-30T05:08:46;5.37;;;4.63;;
8102;SDS011;4094;49.948;11.574;2023-09-30T05:11:16;6.77;;;5.67;;
8102;SDS011;4094;49.948;11.574;2023-09-30T05:13:47;5.47;;;4.67;;
8102;SDS011;4094;49.948;11.574;2023-09-30T05:16:16;7.30;;;4.93;;
8102;SDS011;4094;49.948;11.574;2023-09-30T05:18:46;7.43;;;5.23;;
8102;SDS011;4094;49.948;11.574;2023-09-30T05:21:16;5.70;;;5.07;;
8102;SDS011;4094;49.948;11.574;2023-09-30T05:23:45;5.87;;;4.97;;
8102;SDS011;4094;49.948;11.574;2023-09-30T05:26:14;5.53;;;5.00;;
8102;SDS011;4094;49.948;11.574;2023-09-30T05:28:44;5.63;;;4.40;;
8102;SDS011;4094;49.948;11.574;2023-09-30T05:31:16;5.63;;;5.07;;
8102;SDS011;4094;49.948;11.574;2023-09-30T05:33:45;6.07;;;5.23;;
8102;SDS011;4094;49.948;11.574;2023-09-30T05:36:14;5.37;;;4.87;;
8102;SDS011;4094;49.948;11.574;2023-09-30T05:38:45;5.67;;;5.17;;
8102;SDS011;4094;49.948;11.574;2023-09-30T05:41:16;5.17;;;4.67;;
8102;SDS011;4094;49.948;11.574;2023-09-30T05:43:48;5.67;;;5.13;;
8102;SDS011;4094;49.948;11.574;2023-09-30T05:46:19;5.20;;;4.70;;
8102;SDS011;4094;49.948;11.574;2023-09-30T05:48:48;5.17;;;4.63;;
8102;SDS011;4094;49.948;11.574;2023-09-30T05:51:18;5.67;;;5.07;;
8102;SDS011;4094;49.948;11.574;2023-09-30T05:53:47;5.43;;;4.90;;
8102;SDS011;4094;49.948;11.574;2023-09-30T05:56:17;5.40;;;4.90;;
8102;SDS011;4094;49.948;11.574;2023-09-30T05:58:46;5.67;;;4.80;;
8102;SDS011;4094;49.948;11.574;2023-09-30T06:01:15;5.67;;;5.17;;
8102;SDS011;4094;49.948;11.574;2023-09-30T06:03:47;6.50;;;4.97;;
8102;SDS011;4094;49.948;11.574;2023-09-30T06:06:19;5.27;;;4.80;;
8102;SDS011;4094;49.948;11.574;2023-09-30T06:08:51;6.13;;;4.97;;
8102;SDS011;4094;49.948;11.574;2023-09-30T06:11:21;5.00;;;4.60;;
8102;SDS011;4094;49.948;11.574;2023-09-30T06:13:51;5.47;;;4.97;;
8102;SDS011;4094;49.948;11.574;2023-09-30T06:16:21;7.37;;;4.87;;
8102;SDS011;4094;49.948;11.574;2023-09-30T06:18:52;4.87;;;4.43;;
8102;SDS011;4094;49.948;11.574;2023-09-30T06:21:22;6.33;;;5.23;;
8102;SDS011;4094;49.948;11.574;2023-09-30T06:23:56;5.13;;;4.60;;
8102;SDS011;4094;49.948;11.574;2023-09-30T06:26:25;4.67;;;4.03;;
8102;SDS011;4094;49.948;11.574;2023-09-30T06:28:56;5.17;;;4.63;;
8102;SDS011;4094;49.948;11.574;2023-09-30T06:31:26;5.40;;;4.90;;
8102;SDS011;4094;49.948;11.574;2023-09-30T06:33:57;5.20;;;4.70;;
8102;SDS011;4094;49.948;11.574;2023-09-30T06:36:27;5.27;;;4.73;;
8102;SDS011;4094;49.948;11.574;2023-09-30T06:38:56;6.30;;;4.80;;
8102;SDS011;4094;49.948;11.574;2023-09-30T06:41:26;6.93;;;4.90;;
8102;SDS011;4094;49.948;11.574;2023-09-30T06:43:55;5.63;;;4.77;;
8102;SDS011;4094;49.948;11.574;2023-09-30T06:46:26;5.93;;;4.73;;
8102;SDS011;4094;49.948;11.574;2023-09-30T06:48:56;4.97;;;4.57;;
8102;SDS011;4094;49.948;11.574;2023-09-30T06:51:25;4.80;;;4.27;;
8102;SDS011;4094;49.948;11.574;2023-09-30T06:53:55;6.23;;;4.87;;
8102;SDS011;4094;49.948;11.574;2023-09-30T06:56:24;5.27;;;4.77;;
8102;SDS011;4094;49.948;11.574;2023-09-30T06:58:53;5.50;;;4.90;;
8102;SDS011;4094;49.948;11.574;2023-09-30T07:01:22;5.20;;;4.70;;
8102;SDS011;4094;49.948;11.574;2023-09-30T07:03:51;6.23;;;5.23;;
8102;SDS011;4094;49.948;11.574;2023-09-30T07:06:23;5.93;;;5.40;;
8102;SDS011;4094;49.948;11.574;2023-09-30T07:08:52;6.33;;;4.80;;
8102;SDS011;4094;49.948;11.574;2023-09-30T07:11:27;6.53;;;4.70;;
8102;SDS011;4094;49.948;11.574;2023-09-30T07:13:57;7.37;;;4.97;;
8102;SDS011;4094;49.948;11.574;2023-09-30T07:16:27;5.33;;;4.83;;
8102;SDS011;4094;49.948;11.574;2023-09-30T07:18:56;6.00;;;4.80;;
8102;SDS011;4094;49.948;11.574;2023-09-30T07:21:27;5.00;;;4.50;;
8102;SDS011;4094;49.948;11.574;2023-09-30T07:23:56;5.70;;;4.60;;
8102;SDS011;4094;49.948;11.574;2023-09-30T07:26:26;5.50;;;4.73;;
8102;SDS011;4094;49.948;11.574;2023-09-30T07:28:56;5.30;;;4.80;;
8102;SDS011;4094;49.948;11.574;2023-09-30T07:31:33;6.03;;;4.70;;
8102;SDS011;4094;49.948;11.574;2023-09-30T07:34:03;4.97;;;4.47;;
8102;SDS011;4094;49.948;11.574;2023-09-30T07:36:34;5.10;;;4.60;;
8102;SDS011;4094;49.948;11.574;2023-09-30T07:39:03;5.40;;;4.80;;
8102;SDS011;4094;49.948;11.574;2023-09-30T07:41:34;4.67;;;4.27;;
8102;SDS011;4094;49.948;11.574;2023-09-30T07:44:04;5.90;;;5.00;;
8102;SDS011;4094;49.948;11.574;2023-09-30T07:46:33;5.97;;;5.37;;
8102;SDS011;4094;49.948;11.574;2023-09-30T07:49:02;5.13;;;4.63;;
8102;SDS011;4094;49.948;11.574;2023-09-30T07:51:35;8.20;;;5.13;;
8102;SDS011;4094;49.948;11.574;2023-09-30T07:54:06;5.23;;;4.83;;
8102;SDS011;4094;49.948;11.574;2023-09-30T07:56:56;4.80;;;4.37;;
8102;SDS011;4094;49.948;11.574;2023-09-30T07:59:25;4.77;;;4.37;;
8102;SDS011;4094;49.948;11.574;2023-09-30T08:01:54;5.37;;;4.77;;
8102;SDS011;4094;49.948;11.574;2023-09-30T08:04:24;5.20;;;4.80;;
8102;SDS011;4094;49.948;11.574;2023-09-30T08:06:55;5.33;;;4.80;;
8102;SDS011;4094;49.948;11.574;2023-09-30T08:09:24;6.17;;;4.60;;
8102;SDS011;4094;49.948;11.574;2023-09-30T08:11:53;5.30;;;4.80;;
8102;SDS011;4094;49.948;11.574;2023-09-30T08:14:23;8.70;;;5.03;;
8102;SDS011;4094;49.948;11.574;2023-09-30T08:16:53;6.20;;;4.93;;
8102;SDS011;4094;49.948;11.574;2023-09-30T08:19:22;5.80;;;4.80;;
8102;SDS011;4094;49.948;11.574;2023-09-30T08:21:51;5.73;;;5.07;;
8102;SDS011;4094;49.948;11.574;2023-09-30T08:24:21;7.10;;;4.83;;
8102;SDS011;4094;49.948;11.574;2023-09-30T08:26:50;6.20;;;5.17;;
8102;SDS011;4094;49.948;11.574;2023-09-30T08:29:19;5.73;;;4.30;;
8102;SDS011;4094;49.948;11.574;2023-09-30T08:31:49;4.90;;;4.33;;
8102;SDS011;4094;49.948;11.574;2023-09-30T08:34:18;5.27;;;4.73;;
8102;SDS011;4094;49.948;11.574;2023-09-30T08:36:48;5.17;;;4.60;;
8102;SDS011;4094;49.948;11.574;2023-09-30T08:39:17;4.90;;;4.27;;
8102;SDS011;4094;49.948;11.574;2023-09-30T08:41:48;5.50;;;4.60;;
8102;SDS011;4094;49.948;11.574;2023-09-30T08:44:18;6.47;;;4.37;;
8102;SDS011;4094;49.948;11.574;2023-09-30T08:46:47;5.33;;;4.30;;
8102;SDS011;4094;49.948;11.574;2023-09-30T08:49:20;6.73;;;4.43;;
8102;SDS011;4094;49.948;11.574;2023-09-30T08:51:49;4.87;;;3.87;;
8102;SDS011;4094;49.948;11.574;2023-09-30T08:54:19;6.93;;;4.63;;
8102;SDS011;4094;49.948;11.574;2023-09-30T08:56:50;5.30;;;4.80;;
8102;SDS011;4094;49.948;11.574;2023-09-30T08:59:19;6.53;;;4.80;;
8102;SDS011;4094;49.948;11.574;2023-09-30T09:01:49;6.23;;;4.73;;
8102;SDS011;4094;49.948;11.574;2023-09-30T09:04:18;5.27;;;4.77;;
8102;SDS011;4094;49.948;11.574;2023-09-30T09:06:47;4.90;;;4.50;;
8102;SDS011;4094;49.948;11.574;2023-09-30T09:09:17;5.03;;;4.60;;
8102;SDS011;4094;49.948;11.574;2023-09-30T09:11:50;5.70;;;4.67;;
8102;SDS011;4094;49.948;11.574;2023-09-30T09:14:22;6.03;;;4.20;;
8102;SDS011;4094;49.948;11.574;2023-09-30T09:17:06;5.17;;;4.30;;
8102;SDS011;4094;49.948;11.574;2023-09-30T09:19:36;5.83;;;4.37;;
8102;SDS011;4094;49.948;11.574;2023-09-30T09:22:05;4.47;;;4.00;;
8102;SDS011;4094;49.948;11.574;2023-09-30T09:24:35;6.10;;;4.63;;
8102;SDS011;4094;49.948;11.574;2023-09-30T09:27:08;5.17;;;4.50;;
8102;SDS011;4094;49.948;11.574;2023-09-30T09:29:39;4.60;;;4.03;;
8102;SDS011;4094;49.948;11.574;2023-09-30T09:32:10;6.60;;;4.53;;
8102;SDS011;4094;49.948;11.574;2023-09-30T09:34:40;5.30;;;4.10;;
8102;SDS011;4094;49.948;11.574;2023-09-30T09:37:14;4.80;;;4.30;;
8102;SDS011;4094;49.948;11.574;2023-09-30T09:39:54;4.83;;;4.33;;
8102;SDS011;4094;49.948;11.574;2023-09-30T09:42:27;4.33;;;3.93;;
8102;SDS011;4094;49.948;11.574;2023-09-30T09:44:58;6.93;;;4.40;;
8102;SDS011;4094;49.948;11.574;2023-09-30T09:47:29;5.57;;;4.43;;
8102;SDS011;4094;49.948;11.574;2023-09-30T09:50:02;5.90;;;4.23;;
8102;SDS011;4094;49.948;11.574;2023-09-30T09:52:33;5.53;;;4.23;;
8102;SDS011;4094;49.948;11.574;2023-09-30T09:55:04;7.13;;;4.70;;
8102;SDS011;4094;49.948;11.574;2023-09-30T09:57:36;4.73;;;4.33;;
8102;SDS011;4094;49.948;11.574;2023-09-30T10:00:07;4.43;;;4.03;;
8102;SDS011;4094;49.948;11.574;2023-09-30T10:02:41;5.33;;;3.90;;
8102;SDS011;4094;49.948;11.574;2023-09-30T10:05:11;5.17;;;4.10;;
8102;SDS011;4094;49.948;11.574;2023-09-30T10:07:42;4.03;;;3.60;;
8102;SDS011;4094;49.948;11.574;2023-09-30T10:10:16;5.13;;;3.93;;
8102;SDS011;4094;49.948;11.574;2023-09-30T10:12:48;5.90;;;4.20;;
8102;SDS011;4094;49.948;11.574;2023-09-30T10:18:07;6.17;;;4.07;;
8102;SDS011;4094;49.948;11.574;2023-09-30T10:20:43;5.07;;;3.40;;
8102;SDS011;4094;49.948;11.574;2023-09-30T10:23:23;5.07;;;3.73;;
8102;SDS011;4094;49.948;11.574;2023-09-30T10:25:54;5.50;;;3.40;;
8102;SDS011;4094;49.948;11.574;2023-09-30T10:28:47;5.33;;;3.50;;
8102;SDS011;4094;49.948;11.574;2023-09-30T10:31:17;4.73;;;3.70;;
8102;SDS011;4094;49.948;11.574;2023-09-30T10:36:49;6.50;;;3.27;;
8102;SDS011;4094;49.948;11.574;2023-09-30T10:51:13;4.13;;;3.27;;
8102;SDS011;4094;49.948;11.574;2023-09-30T10:53:49;5.80;;;3.40;;
8102;SDS011;4094;49.948;11.574;2023-09-30T10:56:26;4.47;;;3.17;;
8102;SDS011;4094;49.948;11.574;2023-09-30T10:59:00;4.53;;;3.27;;
8102;SDS011;4094;49.948;11.574;2023-09-30T11:01:33;3.70;;;3.03;;
8102;SDS011;4094;49.948;11.574;2023-09-30T11:04:03;3.63;;;3.07;;
8102;SDS011;4094;49.948;11.574;2023-09-30T11:06:34;4.20;;;2.80;;
8102;SDS011;4094;49.948;11.574;2023-09-30T11:09:08;4.13;;;2.90;;
8102;SDS011;4094;49.948;11.574;2023-09-30T11:11:41;3.83;;;2.90;;
8102;SDS011;4094;49.948;11.574;2023-09-30T11:14:16;4.17;;;3.10;;
8102;SDS011;4094;49.948;11.574;2023-09-30T11:16:48;4.23;;;2.80;;
8102;SDS011;4094;49.948;11.574;2023-09-30T11:19:18;3.50;;;2.83;;
8102;SDS011;4094;49.948;11.574;2023-09-30T11:21:49;4.67;;;2.97;;
8102;SDS011;4094;49.948;11.574;2023-09-30T11:24:19;4.20;;;2.83;;
8102;SDS011;4094;49.948;11.574;2023-09-30T11:26:52;3.73;;;2.70;;
8102;SDS011;4094;49.948;11.574;2023-09-30T11:29:22;4.73;;;2.90;;
8102;SDS011;4094;49.948;11.574;2023-09-30T11:31:53;4.80;;;2.90;;
8102;SDS011;4094;49.948;11.574;2023-09-30T11:34:30;3.90;;;3.03;;
8102;SDS011;4094;49.948;11.574;2023-09-30T11:37:01;5.23;;;2.90;;
8102;SDS011;4094;49.948;11.574;2023-09-30T11:39:31;6.27;;;2.73;;
8102;SDS011;4094;49.948;11.574;2023-09-30T11:42:00;3.77;;;2.40;;
8102;SDS011;4094;49.948;11.574;2023-09-30T11:44:30;3.50;;;2.50;;
8102;SDS011;4094;49.948;11.574;2023-09-30T11:47:00;5.07;;;2.77;;
8102;SDS011;4094;49.948;11.574;2023-09-30T11:49:33;3.53;;;2.23;;
8102;SDS011;4094;49.948;11.574;2023-09-30T11:52:04;3.53;;;2.33;;
8102;SDS011;4094;49.948;11.574;2023-09-30T11:54:36;6.93;;;2.20;;
8102;SDS011;4094;49.948;11.574;2023-09-30T11:57:09;3.63;;;1.93;;
8102;SDS011;4094;49.948;11.574;2023-09-30T11:59:38;2.63;;;1.73;;
8102;SDS011;4094;49.948;11.574;2023-09-30T12:02:09;3.20;;;1.93;;
8102;SDS011;4094;49.948;11.574;2023-09-30T12:04:42;4.40;;;2.10;;
8102;SDS011;4094;49.948;11.574;2023-09-30T12:07:12;3.33;;;1.90;;
8102;SDS011;4094;49.948;11.574;2023-09-30T12:09:42;3.33;;;2.00;;
8102;SDS011;4094;49.948;11.574;2023-09-30T12:12:11;2.47;;;1.57;;
8102;SDS011;4094;49.948;11.574;2023-09-30T12:14:42;3.63;;;1.90;;
8102;SDS011;4094;49.948;11.574;2023-09-30T12:17:13;3.17;;;1.70;;
8102;SDS011;4094;49.948;11.574;2023-09-30T12:19:42;5.07;;;1.80;;
8102;SDS011;4094;49.948;11.574;2023-09-30T12:22:11;2.67;;;1.70;;
8102;SDS011;4094;49.948;11.574;2023-09-30T12:24:40;3.93;;;1.50;;
8102;SDS011;4094;49.948;11.574;2023-09-30T12:27:09;4.93;;;1.80;;
8102;SDS011;4094;49.948;11.574;2023-09-30T12:29:39;2.90;;;1.73;;
8102;SDS011;4094;49.948;11.574;2023-09-30T12:32:08;3.70;;;1.73;;
8102;SDS011;4094;49.948;11.574;2023-09-30T12:34:38;2.93;;;1.63;;
8102;SDS011;4094;49.948;11.574;2023-09-30T12:37:07;3.03;;;1.60;;
8102;SDS011;4094;49.948;11.574;2023-09-30T12:39:36;2.37;;;1.60;;
8102;SDS011;4094;49.948;11.574;2023-09-30T12:42:05;1.90;;;1.37;;
8102;SDS011;4094;49.948;11.574;2023-09-30T12:44:36;3.50;;;1.93;;
8102;SDS011;4094;49.948;11.574;2023-09-30T12:47:06;2.77;;;1.53;;
8102;SDS011;4094;49.948;11.574;2023-09-30T12:49:35;4.43;;;2.00;;
8102;SDS011;4094;49.948;11.574;2023-09-30T12:52:05;2.97;;;1.90;;
8102;SDS011;4094;49.948;11.574;2023-09-30T12:54:34;3.50;;;2.13;;
8102;SDS011;4094;49.948;11.574;2023-09-30T12:57:04;3.47;;;2.10;;
8102;SDS011;4094;49.948;11.574;2023-09-30T12:59:34;2.83;;;1.90;;
8102;SDS011;4094;49.948;11.574;2023-09-30T13:02:03;2.50;;;1.93;;
8102;SDS011;4094;49.948;11.574;2023-09-30T13:04:33;2.43;;;2.00;;
8102;SDS011;4094;49.948;11.574;2023-09-30T13:07:02;2.47;;;2.00;;
8102;SDS011;4094;49.948;11.574;2023-09-30T13:09:34;4.33;;;2.47;;
8102;SDS011;4094;49.948;11.574;2023-09-30T13:12:04;2.83;;;2.23;;
8102;SDS011;4094;49.948;11.574;2023-09-30T13:14:33;2.27;;;2.00;;
8102;SDS011;4094;49.948;11.574;2023-09-30T13:17:02;4.73;;;2.50;;
8102;SDS011;4094;49.948;11.574;2023-09-30T13:19:35;3.53;;;2.70;;
8102;SDS011;4094;49.948;11.574;2023-09-30T13:22:04;3.47;;;2.30;;
8102;SDS011;4094;49.948;11.574;2023-09-30T13:24:46;3.10;;;2.57;;
8102;SDS011;4094;49.948;11.574;2023-09-30T13:27:16;3.37;;;2.50;;
8102;SDS011;4094;49.948;11.574;2023-09-30T13:29:45;4.20;;;2.70;;
8102;SDS011;4094;49.948;11.574;2023-09-30T13:32:14;3.20;;;2.77;;
8102;SDS011;4094;49.948;11.574;2023-09-30T13:34:46;4.13;;;2.80;;
8102;SDS011;4094;49.948;11.574;2023-09-30T13:37:15;3.37;;;3.00;;
8102;SDS011;4094;49.948;11.574;2023-09-30T13:39:44;3.87;;;2.90;;
8102;SDS011;4094;49.948;11.574;2023-09-30T13:42:17;3.40;;;3.00;;
8102;SDS011;4094;49.948;11.574;2023-09-30T13:44:46;3.43;;;2.90;;
8102;SDS011;4094;49.948;11.574;2023-09-30T13:47:15;4.80;;;3.07;;
8102;SDS011;4094;49.948;11.574;2023-09-30T13:49:44;3.67;;;2.90;;
8102;SDS011;4094;49.948;11.574;2023-09-30T13:52:14;4.03;;;2.83;;
8102;SDS011;4094;49.948;11.574;2023-09-30T13:54:43;4.37;;;2.70;;
8102;SDS011;4094;49.948;11.574;2023-09-30T13:57:13;3.37;;;2.70;;
8102;SDS011;4094;49.948;11.574;2023-09-30T13:59:43;3.13;;;2.57;;
8102;SDS011;4094;49.948;11.574;2023-09-30T14:02:12;3.53;;;3.10;;
8102;SDS011;4094;49.948;11.574;2023-09-30T14:04:41;3.63;;;3.13;;
8102;SDS011;4094;49.948;11.574;2023-09-30T14:07:11;3.60;;;3.10;;
8102;SDS011;4094;49.948;11.574;2023-09-30T14:09:41;5.67;;;3.17;;
8102;SDS011;4094;49.948;11.574;2023-09-30T14:12:10;5.03;;;3.17;;
8102;SDS011;4094;49.948;11.574;2023-09-30T14:14:40;5.03;;;3.20;;
8102;SDS011;4094;49.948;11.574;2023-09-30T14:17:09;4.37;;;3.20;;
8102;SDS011;4094;49.948;11.574;2023-09-30T14:19:39;3.30;;;2.80;;
8102;SDS011;4094;49.948;11.574;2023-09-30T14:22:08;3.17;;;2.87;;
8102;SDS011;4094;49.948;11.574;2023-09-30T14:24:37;3.23;;;2.90;;
8102;SDS011;4094;49.948;11.574;2023-09-30T14:27:06;4.00;;;3.30;;
8102;SDS011;4094;49.948;11.574;2023-09-30T14:29:36;3.03;;;2.77;;
8102;SDS011;4094;49.948;11.574;2023-09-30T14:32:06;3.67;;;3.33;;
8102;SDS011;4094;49.948;11.574;2023-09-30T14:34:35;3.50;;;3.03;;
8102;SDS011;4094;49.948;11.574;2023-09-30T14:37:04;4.50;;;3.40;;
8102;SDS011;4094;49.948;11.574;2023-09-30T14:39:34;3.47;;;2.97;;
8102;SDS011;4094;49.948;11.574;2023-09-30T14:42:03;4.00;;;3.10;;
8102;SDS011;4094;49.948;11.574;2023-09-30T14:44:33;3.93;;;3.53;;
8102;SDS011;4094;49.948;11.574;2023-09-30T14:47:11;3.47;;;3.10;;
8102;SDS011;4094;49.948;11.574;2023-09-30T14:49:41;4.77;;;2.97;;
8102;SDS011;4094;49.948;11.574;2023-09-30T14:52:10;3.87;;;3.40;;
8102;SDS011;4094;49.948;11.574;2023-09-30T14:54:39;3.47;;;3.17;;
8102;SDS011;4094;49.948;11.574;2023-09-30T14:57:08;3.10;;;2.80;;
8102;SDS011;4094;49.948;11.574;2023-09-30T14:59:39;4.37;;;2.70;;
8102;SDS011;4094;49.948;11.574;2023-09-30T15:02:08;3.43;;;3.07;;
8102;SDS011;4094;49.948;11.574;2023-09-30T15:04:39;3.60;;;3.10;;
8102;SDS011;4094;49.948;11.574;2023-09-30T15:07:09;4.10;;;3.13;;
8102;SDS011;4094;49.948;11.574;2023-09-30T15:09:39;3.90;;;2.70;;
8102;SDS011;4094;49.948;11.574;2023-09-30T15:12:10;3.27;;;2.97;;
8102;SDS011;4094;49.948;11.574;2023-09-30T15:14:39;3.20;;;3.00;;
8102;SDS011;4094;49.948;11.574;2023-09-30T15:17:08;3.77;;;3.13;;
8102;SDS011;4094;49.948;11.574;2023-09-30T15:19:37;3.50;;;2.80;;
8102;SDS011;4094;49.948;11.574;2023-09-30T15:25:06;5.93;;;3.20;;
8102;SDS011;4094;49.948;11.574;2023-09-30T15:27:37;3.47;;;3.00;;
8102;SDS011;4094;49.948;11.574;2023-09-30T15:30:06;3.57;;;3.27;;
8102;SDS011;4094;49.948;11.574;2023-09-30T15:32:38;4.10;;;3.27;;
8102;SDS011;4094;49.948;11.574;2023-09-30T15:35:08;3.30;;;3.00;;